Flight Track Log - Related Links

Times and Time Zones

All times are in EDT time to prevent confusion due to time zone crossing. See the EJA377P flight status page for this flight to view local times or setup timezone preferences in your user account.

Time Position Orientation Groundspeed Altitude Reporting Facility
EDT Latitude Longitude Course Direction KTS MPH feet Rate Location/Type
Fri 08:33:26 AM 29.9844 -90.2536 193° South 171 197 700  Level Houston Center
Fri 08:33:55 AM 29.9625 -90.2594 193° South 228 262 1,900 3,628 Climbing Houston Center
Fri 08:34:09 AM 29.9408 -90.2672 197° South 232 267 3,300 4,935 Climbing Houston Center
Fri 08:34:57 AM 29.9292 -90.3183 255° West 272 313 7,000 4,679 Climbing Houston Center
Fri 08:35:58 AM 29.9872 -90.3758 319° Northwest 269 310 11,800 4,049 Climbing Houston Center
Fri 08:37:00 AM 30.0744 -90.4503 324° Northwest 323 372 15,300 2,878 Climbing Houston Center
Fri 08:38:01 AM 30.1436 -90.5372 313° West 367 422 17,700 2,390 Climbing Houston Center
Fri 08:39:03 AM 30.2067 -90.6344 307° West 377 434 20,200 2,439 Climbing Houston Center
Fri 08:40:04 AM 30.2750 -90.7328 309° West 387 445 22,700 2,439 Climbing Houston Center
Fri 08:41:06 AM 30.3394 -90.8350 306° West 393 452 25,200 2,341 Climbing Houston Center
Fri 08:42:07 AM 30.4003 -90.9433 303° West 400 460 27,500 2,000 Climbing Houston Center
Fri 08:43:09 AM 30.4631 -91.0558 303° West 414 476 29,300 1,707 Climbing Houston Center
Fri 08:44:10 AM 30.5275 -91.1700 303° West 423 487 31,000 1,659 Climbing Houston Center
Fri 08:45:12 AM 30.5914 -91.2869 302° West 428 493 32,700 1,452 Climbing Houston Center
Fri 08:46:14 AM 30.6703 -91.4272 303° West 432 497 34,000 732 Climbing Houston Center
Fri 08:47:15 AM 30.7278 -91.5331 302° West 445 512 34,200 537 Climbing Houston Center
Fri 08:48:17 AM 30.8064 -91.6761 303° West 437 503 35,100 780 Climbing Houston Center
Fri 08:49:18 AM 30.8706 -91.7900 303° West 424 488 35,800 439 Climbing Houston Center
Fri 08:50:20 AM 30.9319 -91.9031 302° West 416 479 36,000 98 Climbing Houston Center
Fri 08:51:21 AM 30.9967 -92.0214 303° West 428 493 36,000  Level Houston Center
Fri 08:52:23 AM 31.0539 -92.1269 302° West 426 490 36,000  Level Houston Center
Fri 08:53:24 AM 31.1322 -92.2719 302° West 438 504 36,000  Level Houston Center
Fri 08:54:26 AM 31.1975 -92.3922 302° West 441 507 36,000  Level Houston Center
Fri 08:55:27 AM 31.2608 -92.5128 302° West 438 504 36,000  Level Houston Center
Fri 08:56:29 AM 31.3094 -92.6408 294° West 435 501 36,000  Level Houston Center
Fri 08:57:31 AM 31.3592 -92.7714 294° West 439 505 36,000  Level Houston Center
Fri 08:58:32 AM 31.4064 -92.8958 294° West 432 497 36,000  Level Houston Center
Fri 08:59:34 AM 31.4628 -93.0467 294° West 427 491 36,000  Level Houston Center
Fri 09:00:35 AM 31.5114 -93.1742 294° West 427 491 36,000  Level Houston Center
Fri 09:01:37 AM 31.5608 -93.3078 294° West 432 497 36,000  Level Houston Center
Fri 09:02:39 AM 31.6081 -93.4367 293° West 433 498 36,000  Level Houston Center
Fri 09:03:40 AM 31.6564 -93.5656 294° West 432 497 36,000  Level Houston Center
Fri 09:04:42 AM 31.7036 -93.6942 293° West 429 494 36,000  Level Houston Center
Fri 09:05:44 AM 31.7475 -93.8242 292° West 429 494 36,000  Level Houston Center
Fri 09:06:45 AM 31.7997 -93.9811 291° West 431 496 36,000  Level Houston Center
Fri 09:07:47 AM 31.8436 -94.1111 292° West 430 495 36,000  Level Houston Center
Fri 09:08:48 AM 31.8869 -94.2389 292° West 426 490 36,000  Level Houston Center
Fri 09:09:50 AM 31.9300 -94.3689 291° West 427 491 36,000  Level Houston Center
Fri 09:10:52 AM 31.9731 -94.4989 291° West 428 493 36,000  Level Houston Center
Fri 09:11:53 AM 32.0150 -94.6261 291° West 423 487 36,000 -586 Level Houston Center
Fri 09:13:05 AM 32.0692 -94.7878 292° West 429 494 34,700 -1,227 Descending Fort Worth Center
Fri 09:14:05 AM 32.1094 -94.9192 290° West 428 493 33,300 -1,600 Descending Fort Worth Center
Fri 09:15:05 AM 32.1514 -95.0481 291° West 428 493 31,500 -1,950 Descending Fort Worth Center
Fri 09:16:05 AM 32.1978 -95.1867 292° West 433 498 29,400 -2,400 Descending Fort Worth Center
Fri 09:17:05 AM 32.2422 -95.3331 290° West 433 498 26,700 -2,550 Descending Fort Worth Center
Fri 09:18:05 AM 32.2858 -95.4597 292° West 428 493 24,300 -2,350 Descending Fort Worth Center
Fri 09:19:05 AM 32.3275 -95.5892 291° West 423 487 22,000 -2,300 Descending Fort Worth Center
Fri 09:20:05 AM 32.3669 -95.7186 290° West 423 487 19,700 -2,200 Descending Fort Worth Center
Fri 09:21:05 AM 32.4061 -95.8411 291° West 418 481 17,600 -2,100 Descending Fort Worth Center
Fri 09:22:05 AM 32.4428 -95.9536 291° West 405 466 15,500 -1,950 Descending Fort Worth Center
Fri 09:23:05 AM 32.4733 -96.0542 290° West 371 427 13,700 -1,900 Descending Fort Worth Center
Fri 09:24:05 AM 32.5119 -96.1717 291° West 358 412 11,700 -1,900 Descending Fort Worth Center
Fri 09:25:05 AM 32.5444 -96.2772 290° West 347 399 9,900 -1,900 Descending Fort Worth Center
Fri 09:26:05 AM 32.5786 -96.3606 296° West 300 345 7,900 -1,900 Descending Fort Worth Center
Fri 09:27:05 AM 32.6208 -96.4342 304° West 276 318 6,100 -1,450 Descending Fort Worth Center
Fri 09:28:05 AM 32.6631 -96.5078 304° West 276 318 5,000 -550 Descending Fort Worth Center
Fri 09:29:05 AM 32.7242 -96.5689 320° Northwest 271 312 5,000  Level Fort Worth Center
Fri 09:30:05 AM 32.7850 -96.6253 322° Northwest 286 329 5,000  Level Fort Worth Center
Fri 09:31:05 AM 32.8439 -96.6767 324° Northwest 275 316 5,000 -100 Level Fort Worth Center
Fri 09:32:05 AM 32.8858 -96.7133 324° Northwest 231 266 4,800 -500 Descending Fort Worth Center
Fri 09:33:05 AM 32.9381 -96.7600 323° Northwest 219 252 4,000 -400 Descending Fort Worth Center
Fri 09:34:05 AM 32.9822 -96.7942 327° Northwest 214 246 4,000 -500 Level Fort Worth Center
Fri 09:35:05 AM 32.9928 -96.8586 281° West 172 198 3,000 -950 Descending Fort Worth Center
Fri 09:36:05 AM 32.9764 -96.9131 250° West 167 192 2,100 -500 Descending Fort Worth Center
Fri 09:37:05 AM 32.9472 -96.9431 221° Southwest 157 181 2,000 -150 Descending Fort Worth Center
Fri 09:38:05 AM 32.9056 -96.9161 151° Southeast 122 140 1,800 -500 Descending Fort Worth Center
Fri 09:39:05 AM 32.8739 -96.8792 136° Southeast 127 146 1,000 -800 Descending Fort Worth Center
Fri 09:41:00 AM 32.8471 -96.8518 163° South  Level Estimated
Fri 09:48:00 AM 32.8471 -96.8518 163° South  Level Estimated
Fri 09:49:00 AM 32.8471 -96.8518 163° South  Level Estimated

Login

Don't have an account? Register now (free) for customized features, flight alerts, and more!